Aurora, IN

12:10 PM EDT on May 24, 2015 (GMT -0400)
Lawrenceburg 3.4 WNW | | Change Station
CLOSE
Current Station
Personal Weather Station
Location: Lawrenceburg, IN
Elevation: 840 ft
Nearby Weather Stations

Elev 840 ft 39.12 °N, 84.92 °W | Updated 15 seconds ago

Mostly Cloudy
Mostly Cloudy
75.2 °F
Feels Like 78 °F
N
5.0
Wind Variable Wind from South
Gusts 12.0 mph

Today
High -- | Low -- °F
--% Chance of Precip.
Yesterday
High -- | Low -- °F
Precip. -- in
6:20 AM 8:53 PM
Waxing Crescent, 40% visible
Pressure 30.25 in
Visibility 10.0 miles
Clouds Scattered Clouds 9000 ft
Mostly Cloudy 10000 ft
Heat Index 78 °F
Dew Point 58 °F
Humidity 55%
Rainfall 0.00 in
Snow Depth Not available.
UV 5 out of 12
Pollen 9.60 out of 12
Air Quality Not available.
Flu Activity Sporadic
METAR KCVG 241552Z 19010G15KT 10SM SCT090 BKN100 24/12 A3027 RMK AO2 SLP244 T02440122 $

More Conditions Fewer Conditions

Pressure 30.25 in
Visibility 10.0 miles
Clouds Scattered Clouds 9000 ft
Mostly Cloudy 10000 ft
Heat Index 78 °F
Dew Point 58 °F
Humidity 55%
Rainfall 0.00 in
Snow Depth Not available.
UV 5 out of 12
Pollen 9.60 out of 12
Air Quality Not available.
Flu Activity Sporadic
METAR KCVG 241552Z 19010G15KT 10SM SCT090 BKN100 24/12 A3027 RMK AO2 SLP244 T02440122 $

More Conditions Fewer Conditions

10-Day Weather Forecast

Almanac

Astronomy

May. 24, 2015 Rise Set
Actual Time
Civil Twilight
Nautical Twilight
Astronomical Twilight
Moon
Length of Visible Light
Length of Day
Tomorrow will be .
, % of the Moon is Illuminated

Today's Extremes

State Highs State Lows

Community

WunderPhotos

Upload Photos

1,823,781 photos uploaded!

WunderBlogs® & News

Nearby

Air Quality

  Air Quality AQ Index Pollutant
Not available.

Snow Depth

Station Depth Elevation

Earthquake Activity

City Distance Mag. Time & Date
Minimum magnitude displayed is 2.5.

Coastal Water Temperatures

Place Temperature

Stations

Nearby Weather Stations

Station Location Temp. Windchill Dew Point Humidity Wind Precip. Elev Updated Type